Manhattan, Montana
Current Conditions -  °F | °C
As of 3:03 PM on Tuesday 25 Nov 2014 (Local Time) from KBZN Reporting Station
Light Snow Light Snow  
Wind Chill: 28°   Ceiling: 2400
Heat Index: 34°   Visibility: 5mi
Dew Point: 31°   Wind: 7mph
Humidity: 89%   Direction: 330°NNW
Pressure: 30.05"   Gusts: NA
Location:  45.86°N, 111.33°W
Report Text: KBZN 252203Z 33006KT 5SM -SN BR OVC024 01/M01 A3005 RMK AO2 P0000 T00111006
Loading
Personal Weather Stations






























Interactive Weather Map New forecast layout! Learn more

10-Day Weather Forecast

Advertisements
Track Severe Weather on mobile